createdAt,value
2022-11-09T00:04:48.571Z,6.79
2022-11-09T00:14:50.268Z,6.75
2022-11-09T00:24:51.956Z,6.77
2022-11-09T00:34:53.708Z,6.91
2022-11-09T00:44:55.423Z,7.01
2022-11-09T00:54:57.158Z,7.09
2022-11-09T01:04:59.945Z,7.15
2022-11-09T01:15:01.639Z,7.10
2022-11-09T01:25:04.029Z,7.16
2022-11-09T01:35:06.006Z,7.18
2022-11-09T01:45:16.981Z,7.17
2022-11-09T01:55:22.798Z,7.09
2022-11-09T02:05:29.188Z,7.06
2022-11-09T02:15:31.352Z,7.04
2022-11-09T02:25:33.034Z,7.00
2022-11-09T02:35:34.714Z,6.98
2022-11-09T02:45:37.762Z,6.94
2022-11-09T02:55:40.225Z,6.89
2022-11-09T03:05:43.639Z,6.80
2022-11-09T03:15:45.848Z,6.76
2022-11-09T03:25:47.561Z,6.69
2022-11-09T03:35:50.854Z,6.67
2022-11-09T03:45:53.466Z,6.68
2022-11-09T03:55:57.349Z,6.66
2022-11-09T04:05:59.910Z,6.70
2022-11-09T04:16:01.644Z,6.74
2022-11-09T04:26:03.346Z,6.79
2022-11-09T04:36:05.184Z,6.85
2022-11-09T04:46:07.027Z,6.80
2022-11-09T04:56:08.952Z,6.69
2022-11-09T05:06:29.554Z,6.65
2022-11-09T05:16:31.722Z,6.63
2022-11-09T05:26:36.592Z,6.58
2022-11-09T05:36:38.534Z,6.48
2022-11-09T05:46:40.275Z,6.43
2022-11-09T05:56:41.928Z,6.39
2022-11-09T06:06:44.003Z,6.44
2022-11-09T06:16:45.746Z,6.48
2022-11-09T06:26:47.485Z,6.56
2022-11-09T06:36:49.544Z,6.70
2022-11-09T06:46:51.218Z,6.90
2022-11-09T06:56:55.866Z,7.08
2022-11-09T07:06:57.507Z,7.30
2022-11-09T07:16:59.228Z,7.57
2022-11-09T07:27:00.952Z,7.85
2022-11-09T07:37:02.825Z,8.11
2022-11-09T07:47:04.602Z,8.37
2022-11-09T07:57:07.025Z,8.62
2022-11-09T08:07:08.734Z,8.86
2022-11-09T08:17:11.842Z,9.07
2022-11-09T08:27:13.521Z,9.26
2022-11-09T08:37:16.190Z,9.48
2022-11-09T08:47:17.933Z,9.73
2022-11-09T08:57:19.817Z,10.10
2022-11-09T09:07:21.671Z,10.40
2022-11-09T09:17:24.523Z,10.60
2022-11-09T09:27:28.920Z,10.83
2022-11-09T09:37:30.796Z,11.03
2022-11-09T09:48:17.148Z,11.20
2022-11-09T09:58:28.112Z,11.33
2022-11-09T10:08:29.693Z,11.46
2022-11-09T10:19:08.490Z,11.59
2022-11-09T10:29:21.607Z,11.73
2022-11-09T10:39:26.705Z,11.84
2022-11-09T10:50:06.806Z,12.07
2022-11-09T11:00:28.112Z,12.29
2022-11-09T11:10:48.383Z,12.40
2022-11-09T11:21:19.093Z,12.60
2022-11-09T11:31:40.158Z,12.77
2022-11-09T11:42:22.046Z,12.81
2022-11-09T11:53:03.589Z,12.85
2022-11-09T12:04:01.388Z,13.03
2022-11-09T12:14:59.753Z,13.21
2022-11-09T12:25:40.117Z,13.37
2022-11-09T12:36:07.876Z,13.46
2022-11-09T12:46:34.917Z,13.46
2022-11-09T12:56:59.255Z,13.35
2022-11-09T13:07:32.515Z,13.20
2022-11-09T13:17:58.345Z,13.05
2022-11-09T13:28:27.677Z,12.97
2022-11-09T13:39:26.315Z,12.90
2022-11-09T13:49:50.073Z,12.81
2022-11-09T14:00:19.127Z,12.76
2022-11-09T14:10:55.505Z,12.68
2022-11-09T14:21:15.895Z,12.58
2022-11-09T14:31:45.407Z,12.51
2022-11-09T14:42:06.721Z,12.37
2022-11-09T14:52:29.507Z,12.26
2022-11-09T15:02:49.495Z,12.22
2022-11-09T15:13:10.040Z,12.14
2022-11-09T15:23:39.214Z,12.07
2022-11-09T15:33:59.656Z,11.82
2022-11-09T15:44:20.332Z,11.61
2022-11-09T15:54:44.082Z,11.53
2022-11-09T16:05:07.568Z,11.50
2022-11-09T16:15:27.618Z,11.38
2022-11-09T16:25:47.858Z,11.21
2022-11-09T16:36:21.110Z,11.19
2022-11-09T16:46:44.541Z,11.16
2022-11-09T16:57:04.948Z,11.09
2022-11-09T17:07:26.103Z,11.04
2022-11-09T17:17:46.617Z,10.93
2022-11-09T17:28:07.681Z,10.80
2022-11-09T17:38:29.526Z,10.54
2022-11-09T17:48:50.728Z,10.36
2022-11-09T17:59:11.868Z,10.39
2022-11-09T18:09:41.533Z,10.42
2022-11-09T18:20:03.959Z,10.34
2022-11-09T18:30:24.293Z,10.28
2022-11-09T18:40:44.888Z,10.29
2022-11-09T18:51:07.232Z,10.29
2022-11-09T19:01:28.046Z,10.31
2022-11-09T19:11:48.744Z,10.26
2022-11-09T19:22:18.495Z,10.22
2022-11-09T19:32:38.892Z,10.11
2022-11-09T19:42:59.177Z,9.98
2022-11-09T19:53:19.801Z,9.82
2022-11-09T20:03:40.414Z,9.71
2022-11-09T20:14:01.714Z,9.62
2022-11-09T20:24:22.369Z,9.49
2022-11-09T20:34:42.917Z,9.33
2022-11-09T20:45:04.175Z,9.11
2022-11-09T20:55:24.673Z,9.02
2022-11-09T21:05:49.384Z,8.86
2022-11-09T21:16:14.865Z,8.65
2022-11-09T21:26:53.746Z,8.53
2022-11-09T21:37:17.351Z,8.32
2022-11-09T21:47:37.815Z,8.18
2022-11-09T21:57:58.625Z,7.97
2022-11-09T22:08:19.003Z,7.75
2022-11-09T22:18:57.947Z,7.57
2022-11-09T22:29:18.570Z,7.41
2022-11-09T22:39:44.374Z,7.26
2022-11-09T22:50:07.728Z,7.18
2022-11-09T23:00:28.235Z,7.07
2022-11-09T23:10:57.915Z,7.04
2022-11-09T23:21:21.890Z,6.99
2022-11-09T23:31:42.116Z,7.03
2022-11-09T23:42:02.301Z,7.00
2022-11-09T23:52:23.051Z,7.01
